Estatísticas do Tribal Wars: pt56: Ennoblements

Por favor note que as conquistas mostradas nesta página são ao VIVO (quando uma aldeia é conquistada, aparece aqui). Isto quer dizer que enquanto são mostradas aqui, podem não ser mostradas em outras partes do site durante até uma hora.

AldeiaPontosAntigo DonoNovo DonoData/Tempo
Aldeia bárbara (604|369) K361,539hencklein [A-Day]2018-02-21 - 05:31:13
014 {Sword Art Online} (649|499) K469,773timibo [RH~]*OLIVER* [A-Day]2018-02-21 - 05:30:07
Aldeia bárbara (466|513) K5410,239KiNG BOB MARLEY [INSANE]2018-02-21 - 05:27:26
Aldeia bárbara (608|372) K361,523dangerkill66 [S.E.C]2018-02-21 - 05:26:26
Aldeia de BlackBull - 23 (347|581) K537,522sir sts95 [INSANE]Hey-Ho [INSANE]2018-02-21 - 05:23:04
Aldeia bárbara (604|373) K361,522dangerkill66 [S.E.C]dangerkill66 [S.E.C]2018-02-21 - 05:09:27
Aldeia bárbara (604|373) K361,522dangerkill66 [S.E.C]2018-02-21 - 05:09:27
Ataque Nobre Aríete (522|541) K559,413Wingardium [INSANE]rodrigodiabo [A-Day]2018-02-21 - 05:03:03
Aldeia bárbara (326|578) K536,625beleza100fim [LM3]2018-02-21 - 04:59:28
Aldeia bárbara (349|456) K431,531s0nacles [RDunk!]2018-02-21 - 04:55:04
Aldeia bárbara (401|637) K641,504TopHermes [INSANE]2018-02-21 - 04:52:18
Aldeia bárbara (672|416) K461,534ALLGAR I [VIBES]2018-02-21 - 04:49:38
Aldeia bárbara (606|371) K361,536dangerkill66 [S.E.C]dangerkill66 [S.E.C]2018-02-21 - 04:48:52
Aldeia bárbara (606|371) K361,536dangerkill66 [S.E.C]2018-02-21 - 04:48:52
Ataque Nobre Aríete (584|521) K552,840Wingardium [INSANE]Theheromen [A-Day]2018-02-21 - 04:47:19
Aldeia bárbara (568|468) K451,520Scary Maze [RH~]2018-02-21 - 04:40:37
Aldeia bárbara (647|552) K561,519simoes11 [RH ~]2018-02-21 - 04:36:56
Aldeia bárbara (499|322) K3410,000ROLANDO SILVA [RDunk!]2018-02-21 - 04:36:11
Rei mika39 (529|689) K652,595Rei mika1 [BB]Marcio m [BB]2018-02-21 - 04:33:28
003 {Sword Art Online} (648|507) K569,763*OLIVER* [A-Day]*OLIVER* [A-Day]2018-02-21 - 04:32:07
003 {Sword Art Online} (648|507) K569,763timibo [RH~]*OLIVER* [A-Day]2018-02-21 - 04:32:07
Aldeia bárbara (611|364) K361,520coolcrazy [A-Day]2018-02-21 - 04:28:40
Aldeia bárbara (606|370) K361,501dangerkill66 [S.E.C]2018-02-21 - 04:24:55
Aldeia bárbara (613|381) K361,509Nervus [RH~]2018-02-21 - 04:24:45
001 {Sword Art Online} (637|508) K569,739timibo [RH~]*OLIVER* [A-Day]2018-02-21 - 04:19:06
Aldeia bárbara (569|470) K451,524Scary Maze [RH~]2018-02-21 - 04:12:23
Aldeia-bónus (314|462) K43814s0nacles [RDunk!]2018-02-21 - 04:05:51
PenicoDeGuerra (660|591) K561,540grafic [CT]Miguelzito7 [BB]2018-02-21 - 03:56:14
Ataque Nobre Aríete (492|524) K548,540Wingardium [INSANE]rodrigodiabo [A-Day]2018-02-21 - 03:52:31
Aldeia bárbara (335|453) K431,494s0nacles [RDunk!]2018-02-21 - 03:48:31
Ataque Nobre Aríete (489|525) K5410,866Wingardium [INSANE]rodrigodiabo [A-Day]2018-02-21 - 03:48:16
Aldeia bárbara (572|524) K551,617- King Ragnar [A-Day]- King Ragnar [A-Day]2018-02-21 - 03:45:22
Aldeia bárbara (572|524) K551,617- King Ragnar [A-Day]2018-02-21 - 03:45:21
Aldeia bárbara (608|365) K361,483coolcrazy [A-Day]2018-02-21 - 03:40:47
Aldeia bárbara (543|663) K65194aquiles71 [BB]2018-02-21 - 03:36:54

2018-02-21 05:32:44 GMT

Site by Clash Rank - Report error - Privacy policy - 2.1 272